createdAt,value
2017-09-22T00:00:49.408Z,-53
2017-09-22T00:03:16.572Z,-54
2017-09-22T00:05:43.724Z,-54
2017-09-22T00:08:11.090Z,-54
2017-09-22T00:10:38.237Z,-56
2017-09-22T00:13:05.416Z,-68
2017-09-22T00:15:32.566Z,-60
2017-09-22T00:17:59.725Z,-60
2017-09-22T00:20:26.874Z,-62
2017-09-22T00:22:54.021Z,-54
2017-09-22T00:25:21.708Z,-63
2017-09-22T00:27:48.887Z,-62
2017-09-22T00:30:16.039Z,-60
2017-09-22T00:32:43.204Z,-53
2017-09-22T00:35:10.383Z,-53
2017-09-22T00:37:37.529Z,-54
2017-09-22T00:40:04.673Z,-67
2017-09-22T00:42:31.813Z,-54
2017-09-22T00:44:59.004Z,-55
2017-09-22T00:47:26.910Z,-53
2017-09-22T00:49:54.076Z,-59
2017-09-22T00:52:21.226Z,-54
2017-09-22T00:54:48.558Z,-53
2017-09-22T00:57:15.698Z,-54
2017-09-22T00:59:43.478Z,-55
2017-09-22T01:02:10.643Z,-55
2017-09-22T01:04:37.964Z,-67
2017-09-22T01:07:05.140Z,-68
2017-09-22T01:09:33.014Z,-54
2017-09-22T01:12:00.760Z,-54
2017-09-22T01:14:28.193Z,-54
2017-09-22T01:16:56.445Z,-68
2017-09-22T01:19:24.602Z,-70
2017-09-22T01:21:54.532Z,-61
2017-09-22T01:24:21.776Z,-57
2017-09-22T01:26:49.615Z,-54
2017-09-22T01:29:16.816Z,-67
2017-09-22T01:31:44.148Z,-53
2017-09-22T01:34:12.302Z,-69
2017-09-22T01:36:39.502Z,-67
2017-09-22T01:39:07.091Z,-69
2017-09-22T01:41:34.490Z,-66
2017-09-22T01:44:02.147Z,-65
2017-09-22T01:46:29.902Z,-54
2017-09-22T01:48:57.225Z,-67
2017-09-22T01:51:24.424Z,-54
2017-09-22T01:53:51.691Z,-53
2017-09-22T01:56:18.843Z,-53
2017-09-22T01:58:45.990Z,-53
2017-09-22T02:01:13.131Z,-64
2017-09-22T02:03:40.271Z,-66
2017-09-22T02:06:07.413Z,-63
2017-09-22T02:08:34.565Z,-60
2017-09-22T02:11:01.701Z,-63
2017-09-22T02:13:28.842Z,-64
2017-09-22T02:15:55.996Z,-57
2017-09-22T02:18:23.129Z,-60
2017-09-22T02:20:50.284Z,-61
2017-09-22T02:23:17.448Z,-68
2017-09-22T02:25:44.585Z,-64
2017-09-22T02:28:11.748Z,-66
2017-09-22T02:30:38.901Z,-59
2017-09-22T02:33:06.217Z,-65
2017-09-22T02:35:34.125Z,-68
2017-09-22T02:38:01.280Z,-69
2017-09-22T02:40:28.444Z,-64
2017-09-22T02:42:55.594Z,-64
2017-09-22T02:45:22.738Z,-62
2017-09-22T02:47:49.909Z,-53
2017-09-22T02:50:17.065Z,-54
2017-09-22T02:52:44.206Z,-54
2017-09-22T02:55:11.360Z,-53
2017-09-22T02:57:38.510Z,-54
2017-09-22T03:00:05.668Z,-68
2017-09-22T03:02:32.820Z,-68
2017-09-22T03:04:59.973Z,-66
2017-09-22T03:07:27.114Z,-65
2017-09-22T03:09:54.284Z,-60
2017-09-22T03:12:21.417Z,-60
2017-09-22T03:14:48.568Z,-61
2017-09-22T03:17:15.728Z,-54
2017-09-22T03:19:42.866Z,-53
2017-09-22T03:22:10.007Z,-54
2017-09-22T03:24:37.150Z,-65
2017-09-22T03:27:04.303Z,-63
2017-09-22T03:29:31.437Z,-54
2017-09-22T03:31:58.593Z,-54
2017-09-22T03:34:25.747Z,-66
2017-09-22T03:36:52.885Z,-64
2017-09-22T03:39:20.018Z,-65
2017-09-22T03:41:47.173Z,-68
2017-09-22T03:44:14.305Z,-67
2017-09-22T03:46:41.442Z,-67
2017-09-22T03:49:08.578Z,-54
2017-09-22T03:51:35.815Z,-54
2017-09-22T03:54:02.968Z,-53
2017-09-22T03:56:30.128Z,-54
2017-09-22T03:58:57.283Z,-68
2017-09-22T04:01:24.440Z,-53
2017-09-22T04:03:51.583Z,-63
2017-09-22T04:06:18.736Z,-65
2017-09-22T04:08:45.873Z,-58
2017-09-22T04:11:13.016Z,-69
2017-09-22T04:13:40.177Z,-66
2017-09-22T04:16:07.331Z,-55
2017-09-22T04:18:34.472Z,-53
2017-09-22T04:21:01.605Z,-62
2017-09-22T04:23:28.738Z,-53
2017-09-22T04:25:55.877Z,-54
2017-09-22T04:28:23.011Z,-54
2017-09-22T04:30:50.172Z,-53
2017-09-22T04:33:17.310Z,-53
2017-09-22T04:35:44.447Z,-54
2017-09-22T04:38:11.607Z,-54
2017-09-22T04:40:38.753Z,-61
2017-09-22T04:43:05.898Z,-66
2017-09-22T04:45:33.051Z,-53
2017-09-22T04:48:00.361Z,-53
2017-09-22T04:50:27.505Z,-53
2017-09-22T04:52:54.640Z,-53
2017-09-22T04:55:21.801Z,-54
2017-09-22T04:57:48.949Z,-53
2017-09-22T05:00:17.134Z,-53
2017-09-22T05:02:44.301Z,-54
2017-09-22T05:05:11.454Z,-66
2017-09-22T05:07:38.632Z,-64
2017-09-22T05:10:05.789Z,-65
2017-09-22T05:12:32.958Z,-54
2017-09-22T05:15:00.110Z,-67
2017-09-22T05:17:27.249Z,-54
2017-09-22T05:19:54.389Z,-66
2017-09-22T05:22:21.547Z,-57
2017-09-22T05:24:48.707Z,-54
2017-09-22T05:27:15.876Z,-62
2017-09-22T05:29:43.023Z,-54
2017-09-22T05:32:10.170Z,-53
2017-09-22T05:34:37.469Z,-53
2017-09-22T05:37:04.609Z,-67
2017-09-22T05:39:32.522Z,-54
2017-09-22T05:41:59.665Z,-54
2017-09-22T05:44:26.820Z,-53
2017-09-22T05:46:53.976Z,-53
2017-09-22T05:49:21.130Z,-53
2017-09-22T05:51:48.279Z,-54
2017-09-22T05:54:15.444Z,-54
2017-09-22T05:56:42.602Z,-54
2017-09-22T05:59:09.746Z,-54
2017-09-22T06:01:36.890Z,-53
2017-09-22T06:04:04.047Z,-68
2017-09-22T06:06:31.207Z,-55
2017-09-22T06:08:58.373Z,-54
2017-09-22T06:11:25.527Z,-53
2017-09-22T06:13:52.665Z,-53
2017-09-22T06:16:19.814Z,-57
2017-09-22T06:18:46.953Z,-54
2017-09-22T06:21:14.135Z,-55
2017-09-22T06:23:41.281Z,-53
2017-09-22T06:26:08.426Z,-54
2017-09-22T06:28:35.569Z,-54
2017-09-22T06:31:02.731Z,-54
2017-09-22T06:33:29.923Z,-53
2017-09-22T06:35:57.062Z,-64
2017-09-22T06:38:24.224Z,-55
2017-09-22T06:40:51.389Z,-54
2017-09-22T06:43:18.529Z,-53
2017-09-22T06:45:45.668Z,-53
2017-09-22T06:48:12.825Z,-54
2017-09-22T06:50:39.974Z,-53
2017-09-22T06:53:07.121Z,-53
2017-09-22T06:55:34.280Z,-54
2017-09-22T06:58:01.439Z,-54
2017-09-22T07:00:28.596Z,-61
2017-09-22T07:02:55.756Z,-53
2017-09-22T07:05:22.897Z,-54
2017-09-22T07:07:50.058Z,-53
2017-09-22T07:10:17.223Z,-54
2017-09-22T07:12:45.149Z,-54
2017-09-22T07:15:12.313Z,-54
2017-09-22T07:17:39.469Z,-53
2017-09-22T07:20:06.635Z,-55
2017-09-22T07:22:33.772Z,-54
2017-09-22T07:25:01.074Z,-54
2017-09-22T07:27:28.231Z,-53
2017-09-22T07:29:55.400Z,-54
2017-09-22T07:32:22.559Z,-53
2017-09-22T07:34:49.702Z,-54
2017-09-22T07:37:16.845Z,-54
2017-09-22T07:39:43.990Z,-54
2017-09-22T07:42:11.153Z,-54
2017-09-22T07:44:38.297Z,-55
2017-09-22T07:47:05.474Z,-69
2017-09-22T07:49:32.640Z,-54
2017-09-22T07:51:59.781Z,-54
2017-09-22T07:54:27.717Z,-53
2017-09-22T07:56:54.857Z,-54
2017-09-22T07:59:22.028Z,-54
2017-09-22T08:01:49.188Z,-53
2017-09-22T08:04:16.330Z,-54
2017-09-22T08:06:43.488Z,-59
2017-09-22T08:09:10.660Z,-53
2017-09-22T08:11:37.801Z,-53
2017-09-22T08:14:04.959Z,-65
2017-09-22T08:16:32.124Z,-54
2017-09-22T08:19:00.045Z,-54
2017-09-22T08:21:27.198Z,-54
2017-09-22T08:23:54.338Z,-54
2017-09-22T08:26:21.496Z,-54
2017-09-22T08:28:48.648Z,-58
2017-09-22T08:31:15.804Z,-53
2017-09-22T08:33:42.958Z,-53
2017-09-22T08:36:10.109Z,-54
2017-09-22T08:38:37.274Z,-54
2017-09-22T08:41:04.761Z,-67
2017-09-22T08:43:31.924Z,-54
2017-09-22T08:45:59.071Z,-54
2017-09-22T08:48:26.221Z,-53
2017-09-22T08:50:53.362Z,-55
2017-09-22T08:53:20.510Z,-53
2017-09-22T08:55:47.653Z,-59
2017-09-22T08:58:14.798Z,-53
2017-09-22T09:00:41.945Z,-54
2017-09-22T09:03:09.109Z,-54
2017-09-22T09:05:36.253Z,-54
2017-09-22T09:08:03.396Z,-54
2017-09-22T09:10:30.549Z,-53
2017-09-22T09:12:57.702Z,-66
2017-09-22T09:15:24.873Z,-54
2017-09-22T09:17:52.786Z,-54
2017-09-22T09:20:19.929Z,-55
2017-09-22T09:22:47.092Z,-54
2017-09-22T09:25:14.256Z,-53
2017-09-22T09:27:41.397Z,-54
2017-09-22T09:30:08.567Z,-54
2017-09-22T09:32:35.714Z,-53
2017-09-22T09:35:02.861Z,-54
2017-09-22T09:37:30.030Z,-54
2017-09-22T09:39:57.191Z,-67
2017-09-22T09:42:24.347Z,-54
2017-09-22T09:44:51.489Z,-54
2017-09-22T09:47:18.647Z,-53
2017-09-22T09:49:45.812Z,-53
2017-09-22T09:52:12.971Z,-54
2017-09-22T09:54:41.008Z,-53
2017-09-22T09:57:08.195Z,-54
2017-09-22T09:59:35.827Z,-54
2017-09-22T10:02:02.989Z,-54
2017-09-22T10:04:30.406Z,-53
2017-09-22T10:06:58.321Z,-69
2017-09-22T10:09:26.055Z,-54
2017-09-22T10:11:53.243Z,-54
2017-09-22T10:14:20.400Z,-53
2017-09-22T10:16:47.720Z,-53
2017-09-22T10:19:15.579Z,-55
2017-09-22T10:21:42.783Z,-54
2017-09-22T10:24:09.945Z,-53
2017-09-22T10:26:37.100Z,-53
2017-09-22T10:29:04.242Z,-68
2017-09-22T10:31:31.385Z,-54
2017-09-22T10:33:58.539Z,-57
2017-09-22T10:36:25.701Z,-57
2017-09-22T10:38:52.856Z,-53
2017-09-22T10:41:20.005Z,-54
2017-09-22T10:43:47.521Z,-53
2017-09-22T10:46:14.679Z,-54
2017-09-22T10:48:41.844Z,-54
2017-09-22T10:51:08.990Z,-54
2017-09-22T10:53:36.198Z,-54
2017-09-22T10:56:03.337Z,-54
2017-09-22T10:58:30.482Z,-54
2017-09-22T11:00:57.622Z,-65
2017-09-22T11:03:25.529Z,-54
2017-09-22T11:05:52.693Z,-53
2017-09-22T11:08:19.849Z,-54
2017-09-22T11:10:46.998Z,-54
2017-09-22T11:13:14.147Z,-54
2017-09-22T11:15:41.820Z,-54
2017-09-22T11:18:08.974Z,-54
2017-09-22T11:20:36.113Z,-54
2017-09-22T11:23:03.296Z,-55
2017-09-22T11:25:30.460Z,-53
2017-09-22T11:27:57.605Z,-69
2017-09-22T11:30:25.526Z,-54
2017-09-22T11:32:52.701Z,-53
2017-09-22T11:35:19.845Z,-53
2017-09-22T11:37:46.996Z,-62
2017-09-22T11:40:14.163Z,-53
2017-09-22T11:42:42.079Z,-54
2017-09-22T11:45:09.221Z,-54
2017-09-22T11:47:36.361Z,-54
2017-09-22T11:50:03.516Z,-54
2017-09-22T11:52:30.679Z,-53
2017-09-22T11:54:57.833Z,-64
2017-09-22T11:57:24.965Z,-53
2017-09-22T11:59:52.120Z,-54
2017-09-22T12:02:19.258Z,-53
2017-09-22T12:04:46.978Z,-53
2017-09-22T12:07:14.127Z,-53
2017-09-22T12:09:41.281Z,-54
2017-09-22T12:12:08.422Z,-54
2017-09-22T12:14:35.834Z,-54
2017-09-22T12:17:02.997Z,-56
2017-09-22T12:19:30.150Z,-54
2017-09-22T12:21:57.295Z,-64
2017-09-22T12:24:24.455Z,-54
2017-09-22T12:26:51.602Z,-54
2017-09-22T12:29:18.763Z,-54
2017-09-22T12:31:45.927Z,-54
2017-09-22T12:34:13.089Z,-59
2017-09-22T12:36:41.020Z,-54
2017-09-22T12:39:08.175Z,-55
2017-09-22T12:41:35.340Z,-50
2017-09-22T12:44:02.500Z,-50
2017-09-22T12:46:30.015Z,-50
2017-09-22T12:48:57.179Z,-50
2017-09-22T12:51:24.336Z,-51
2017-09-22T12:53:51.492Z,-50
2017-09-22T12:56:18.649Z,-50
2017-09-22T12:58:45.824Z,-50
2017-09-22T13:01:12.989Z,-49
2017-09-22T13:03:40.162Z,-50
2017-09-22T13:06:07.317Z,-50
2017-09-22T13:08:34.495Z,-50
2017-09-22T13:11:01.721Z,-50
2017-09-22T13:13:28.889Z,-50
2017-09-22T13:15:56.064Z,-51
2017-09-22T13:18:23.206Z,-50
2017-09-22T13:20:50.363Z,-51
2017-09-22T13:23:17.510Z,-50
2017-09-22T13:25:44.654Z,-50
2017-09-22T13:28:11.792Z,-50
2017-09-22T13:30:38.954Z,-50
2017-09-22T13:33:06.131Z,-50
2017-09-22T13:35:34.041Z,-50
2017-09-22T13:38:01.200Z,-50
2017-09-22T13:40:28.370Z,-51
2017-09-22T13:42:56.014Z,-50
2017-09-22T13:45:23.206Z,-50
2017-09-22T13:47:50.365Z,-50
2017-09-22T13:50:17.524Z,-49
2017-09-22T13:52:44.673Z,-50
2017-09-22T13:55:11.829Z,-50
2017-09-22T13:57:38.984Z,-50
2017-09-22T14:00:06.146Z,-49
2017-09-22T14:02:33.331Z,-51
2017-09-22T14:05:00.473Z,-50
2017-09-22T14:07:27.622Z,-49
2017-09-22T14:09:54.779Z,-50
2017-09-22T14:12:21.939Z,-50
2017-09-22T14:14:49.096Z,-50
2017-09-22T14:17:16.262Z,-50
2017-09-22T14:19:43.410Z,-50
2017-09-22T14:22:10.569Z,-50
2017-09-22T14:24:37.729Z,-50
2017-09-22T14:27:04.875Z,-49
2017-09-22T14:29:32.040Z,-50
2017-09-22T14:31:59.202Z,-50
2017-09-22T14:34:26.358Z,-50
2017-09-22T14:36:53.502Z,-50
2017-09-22T14:39:20.664Z,-49
2017-09-22T14:41:47.824Z,-50
2017-09-22T14:44:14.982Z,-50
2017-09-22T14:46:42.172Z,-50
2017-09-22T14:49:10.090Z,-49
2017-09-22T14:51:37.238Z,-50
2017-09-22T14:54:04.394Z,-50
2017-09-22T14:56:31.537Z,-50
2017-09-22T14:58:58.676Z,-50
2017-09-22T15:01:25.995Z,-50
2017-09-22T15:03:53.911Z,-50
2017-09-22T15:06:21.049Z,-49
2017-09-22T15:08:48.212Z,-50
2017-09-22T15:11:15.376Z,-50
2017-09-22T15:13:42.518Z,-50
2017-09-22T15:16:09.661Z,-50
2017-09-22T15:18:36.803Z,-50
2017-09-22T15:21:03.942Z,-50
2017-09-22T15:23:31.094Z,-50
2017-09-22T15:25:58.253Z,-50
2017-09-22T15:28:25.421Z,-50
2017-09-22T15:30:52.558Z,-51
2017-09-22T15:33:19.713Z,-50
2017-09-22T15:35:46.872Z,-50
2017-09-22T15:38:14.009Z,-49
2017-09-22T15:40:41.153Z,-50
2017-09-22T15:43:08.308Z,-50
2017-09-22T15:45:35.471Z,-49
2017-09-22T15:48:02.606Z,-50
2017-09-22T15:50:29.750Z,-49
2017-09-22T15:52:56.899Z,-50
2017-09-22T15:55:24.046Z,-50
2017-09-22T15:57:51.200Z,-50
2017-09-22T16:00:18.351Z,-50
2017-09-22T16:02:45.499Z,-50
2017-09-22T16:05:12.666Z,-50
2017-09-22T16:07:39.832Z,-50
2017-09-22T16:10:06.970Z,-50
2017-09-22T16:12:34.122Z,-50
2017-09-22T16:15:01.283Z,-50
2017-09-22T16:17:28.447Z,-49
2017-09-22T16:19:55.642Z,-50
2017-09-22T16:22:22.804Z,-50
2017-09-22T16:24:49.938Z,-50
2017-09-22T16:27:17.074Z,-50
2017-09-22T16:29:44.959Z,-50
2017-09-22T16:32:13.034Z,-49
2017-09-22T16:34:40.475Z,-50
2017-09-22T16:37:07.922Z,-50
2017-09-22T16:39:35.851Z,-50
2017-09-22T16:42:03.012Z,-50
2017-09-22T16:44:30.154Z,-50
2017-09-22T16:46:57.297Z,-50
2017-09-22T16:49:24.461Z,-49
2017-09-22T16:51:51.601Z,-50
2017-09-22T16:54:18.755Z,-50
2017-09-22T16:56:45.909Z,-50
2017-09-22T16:59:13.069Z,-49
2017-09-22T17:01:40.238Z,-50
2017-09-22T17:04:07.397Z,-49
2017-09-22T17:06:34.556Z,-50
2017-09-22T17:09:01.725Z,-50
2017-09-22T17:11:28.869Z,-50
2017-09-22T17:13:56.006Z,-50
2017-09-22T17:16:23.252Z,-50
2017-09-22T17:18:50.444Z,-50
2017-09-22T17:21:17.605Z,-50
2017-09-22T17:23:44.746Z,-50
2017-09-22T17:26:11.903Z,-49
2017-09-22T17:28:39.049Z,-50
2017-09-22T17:31:06.212Z,-49
2017-09-22T17:33:33.381Z,-49
2017-09-22T17:36:00.530Z,-50
2017-09-22T17:38:27.686Z,-50
2017-09-22T17:40:54.845Z,-51
2017-09-22T17:43:21.999Z,-50
2017-09-22T17:45:49.235Z,-50
2017-09-22T17:48:16.948Z,-51
2017-09-22T17:50:44.092Z,-50
2017-09-22T17:53:11.292Z,-49
2017-09-22T17:55:38.477Z,-50
2017-09-22T17:58:05.622Z,-50
2017-09-22T18:00:32.762Z,-50
2017-09-22T18:02:59.906Z,-49
2017-09-22T18:05:27.069Z,-50
2017-09-22T18:07:54.236Z,-50
2017-09-22T18:10:21.399Z,-50
2017-09-22T18:12:48.541Z,-49
2017-09-22T18:15:15.704Z,-52
2017-09-22T18:17:42.868Z,-51
2017-09-22T18:20:10.073Z,-50
2017-09-22T18:22:37.233Z,-50
2017-09-22T18:25:04.391Z,-50
2017-09-22T18:27:31.553Z,-52
2017-09-22T18:29:58.716Z,-50
2017-09-22T18:32:25.853Z,-50
2017-09-22T18:34:53.009Z,-50
2017-09-22T18:37:20.163Z,-49
2017-09-22T18:39:47.310Z,-50
2017-09-22T18:42:14.980Z,-50
2017-09-22T18:44:42.153Z,-50
2017-09-22T18:47:09.354Z,-50
2017-09-22T18:49:37.453Z,-50
2017-09-22T18:52:04.880Z,-49
2017-09-22T18:54:32.026Z,-50
2017-09-22T18:56:59.221Z,-50
2017-09-22T18:59:26.641Z,-49
2017-09-22T19:01:53.794Z,-50
2017-09-22T19:04:20.957Z,-50
2017-09-22T19:06:50.381Z,-49
2017-09-22T19:09:17.526Z,-50
2017-09-22T19:11:44.669Z,-50
2017-09-22T19:14:11.814Z,-49
2017-09-22T19:16:38.976Z,-49
2017-09-22T19:19:06.132Z,-49
2017-09-22T19:21:33.276Z,-50
2017-09-22T19:24:00.500Z,-50
2017-09-22T19:26:27.668Z,-50
2017-09-22T19:28:54.841Z,-50
2017-09-22T19:31:22.018Z,-50
2017-09-22T19:33:51.168Z,-50
2017-09-22T19:36:18.377Z,-49
2017-09-22T19:38:45.535Z,-49
2017-09-22T19:41:17.406Z,-50
2017-09-22T19:43:45.261Z,-51
2017-09-22T19:46:12.425Z,-50
2017-09-22T19:48:39.824Z,-50
2017-09-22T19:51:07.170Z,-53
2017-09-22T19:53:34.309Z,-51
2017-09-22T19:56:01.449Z,-50
2017-09-22T19:58:28.753Z,-50
2017-09-22T20:00:55.938Z,-50
2017-09-22T20:03:23.101Z,-50
2017-09-22T20:05:50.451Z,-50
2017-09-22T20:08:17.641Z,-54
2017-09-22T20:10:44.996Z,-53
2017-09-22T20:13:12.134Z,-49
2017-09-22T20:15:39.277Z,-49
2017-09-22T20:18:06.446Z,-49
2017-09-22T20:20:33.606Z,-50
2017-09-22T20:23:00.763Z,-50
2017-09-22T20:25:28.674Z,-52
2017-09-22T20:27:56.021Z,-49
2017-09-22T20:30:23.167Z,-49
2017-09-22T20:32:50.302Z,-49
2017-09-22T20:35:18.234Z,-49
2017-09-22T20:37:45.391Z,-50
2017-09-22T20:40:12.550Z,-49
2017-09-22T20:42:39.703Z,-50
2017-09-22T20:45:06.858Z,-49
2017-09-22T20:47:34.020Z,-51
2017-09-22T20:50:01.161Z,-54
2017-09-22T20:52:28.417Z,-51
2017-09-22T20:54:56.710Z,-54
2017-09-22T20:57:23.866Z,-49
2017-09-22T20:59:51.013Z,-49
2017-09-22T21:02:18.172Z,-50
2017-09-22T21:04:45.419Z,-50
2017-09-22T21:07:12.567Z,-50
2017-09-22T21:09:39.728Z,-49
2017-09-22T21:12:06.867Z,-49
2017-09-22T21:14:34.235Z,-49
2017-09-22T21:17:01.396Z,-49
2017-09-22T21:19:30.158Z,-53
2017-09-22T21:21:57.311Z,-53
2017-09-22T21:24:24.471Z,-49
2017-09-22T21:26:51.629Z,-49
2017-09-22T21:29:18.775Z,-49
2017-09-22T21:31:45.941Z,-49
2017-09-22T21:34:13.101Z,-49
2017-09-22T21:36:40.245Z,-50
2017-09-22T21:39:07.381Z,-50
2017-09-22T21:41:34.535Z,-50
2017-09-22T21:44:01.969Z,-49
2017-09-22T21:46:29.276Z,-49
2017-09-22T21:48:57.589Z,-49
2017-09-22T21:51:24.941Z,-49
2017-09-22T21:53:52.077Z,-50
2017-09-22T21:56:20.253Z,-49
2017-09-22T21:58:47.824Z,-50
2017-09-22T22:01:15.265Z,-49
2017-09-22T22:03:48.158Z,-49
2017-09-22T22:06:21.249Z,-50
2017-09-22T22:09:06.543Z,-50
2017-09-22T22:11:34.031Z,-50
2017-09-22T22:14:01.750Z,-50
2017-09-22T22:16:29.021Z,-50
2017-09-22T22:18:56.482Z,-50
2017-09-22T22:21:24.247Z,-49
2017-09-22T22:23:51.771Z,-50
2017-09-22T22:26:19.167Z,-51
2017-09-22T22:28:46.704Z,-50
2017-09-22T22:31:14.146Z,-50
2017-09-22T22:33:41.540Z,-50
2017-09-22T22:36:09.183Z,-49
2017-09-22T22:38:36.496Z,-50
2017-09-22T22:41:04.041Z,-50
2017-09-22T22:43:31.556Z,-50
2017-09-22T22:45:58.793Z,-50
2017-09-22T22:48:28.328Z,-50
2017-09-22T22:50:55.608Z,-50
2017-09-22T22:53:23.266Z,-50
2017-09-22T22:55:50.800Z,-50
2017-09-22T22:58:17.995Z,-50
2017-09-22T23:00:45.713Z,-51
2017-09-22T23:03:13.394Z,-49
2017-09-22T23:05:40.689Z,-49
2017-09-22T23:08:08.205Z,-49
2017-09-22T23:10:35.392Z,-50
2017-09-22T23:13:02.864Z,-50
2017-09-22T23:15:30.209Z,-50
2017-09-22T23:17:57.853Z,-50
2017-09-22T23:20:26.219Z,-50
2017-09-22T23:22:53.509Z,-50
2017-09-22T23:25:20.953Z,-49
2017-09-22T23:27:49.965Z,-50
2017-09-22T23:30:19.116Z,-50
2017-09-22T23:32:48.092Z,-50
2017-09-22T23:35:16.445Z,-50
2017-09-22T23:37:44.022Z,-50
2017-09-22T23:40:11.682Z,-49
2017-09-22T23:42:39.149Z,-50
2017-09-22T23:45:06.467Z,-50
2017-09-22T23:47:33.985Z,-50
2017-09-22T23:50:01.549Z,-50
2017-09-22T23:52:28.840Z,-50
2017-09-22T23:54:56.217Z,-50
2017-09-22T23:57:23.852Z,-50
2017-09-22T23:59:51.134Z,-50
